Time;durP1;ratioP1;P1;durP2;ratioP2;P2;SDS_P1;SDS_P2;PMS_P1;PMS_P2;Temp;Humidity;BMP_temperature;BMP_pressure;BME280_temperature;BME280_humidity;BME280_pressure;Samples;Min_cycle;Max_cycle;Signal;HPM_P1;HPM_P2
2021/12/09 00:01:33;;;;;;;25.77;12.57;;;;;;;0.26;100.00;94656.28;5064141;28;20064;-86
2021/12/09 00:04:07;;;;;;;22.73;11.18;;;;;;;0.24;100.00;94673.81;5066531;28;20037;-84
2021/12/09 00:06:35;;;;;;;22.42;11.75;;;;;;;0.24;100.00;94663.47;5065095;28;20095;-79
2021/12/09 00:09:05;;;;;;;25.02;12.60;;;;;;;0.26;100.00;94671.00;5068377;28;20041;-78
2021/12/09 00:11:30;;;;;;;27.15;14.13;;;;;;;0.35;100.00;94684.50;5068773;28;20056;-79
2021/12/09 00:13:57;;;;;;;28.20;13.43;;;;;;;0.54;100.00;94678.41;5075167;28;20021;-78
2021/12/09 00:16:23;;;;;;;27.92;13.73;;;;;;;0.36;100.00;94673.16;5068659;28;20037;-78
2021/12/09 00:18:49;;;;;;;26.27;12.57;;;;;;;0.34;100.00;94665.59;5072944;28;20039;-77
2021/12/09 00:21:18;;;;;;;23.42;12.23;;;;;;;0.38;100.00;94658.22;5074494;28;20040;-78
2021/12/09 00:23:45;;;;;;;23.67;12.20;;;;;;;0.24;100.00;94654.94;5069165;28;20048;-79
2021/12/09 00:26:13;;;;;;;23.95;11.77;;;;;;;0.25;100.00;94656.50;5067428;28;20041;-79
2021/12/09 00:28:38;;;;;;;25.50;11.52;;;;;;;0.35;100.00;94653.47;5068508;28;20040;-78
2021/12/09 00:31:04;;;;;;;25.15;12.43;;;;;;;0.35;100.00;94661.22;5072461;28;20097;-80
2021/12/09 00:33:30;;;;;;;25.25;11.60;;;;;;;0.36;100.00;94662.81;5074897;28;20093;-77
2021/12/09 00:35:59;;;;;;;24.52;12.25;;;;;;;0.40;100.00;94658.78;5065555;28;20037;-79
2021/12/09 00:38:38;;;;;;;24.42;12.52;;;;;;;0.32;100.00;94666.81;5062386;28;20104;-79
2021/12/09 00:41:06;;;;;;;22.73;11.35;;;;;;;0.24;100.00;94673.03;5056179;28;20030;-79
2021/12/09 00:43:32;;;;;;;26.33;12.50;;;;;;;0.22;100.00;94681.00;5046323;28;20049;-80
2021/12/09 00:45:58;;;;;;;26.05;13.50;;;;;;;0.33;100.00;94681.34;5046055;28;20128;-79
2021/12/09 00:48:24;;;;;;;25.60;11.95;;;;;;;0.26;100.00;94686.53;5045775;28;20038;-80
2021/12/09 00:50:53;;;;;;;23.02;12.77;;;;;;;0.31;100.00;94688.50;5045722;28;20101;-79
2021/12/09 00:53:20;;;;;;;23.15;11.50;;;;;;;0.25;100.00;94685.75;5044191;28;20041;-80
2021/12/09 00:55:48;;;;;;;26.98;13.63;;;;;;;0.23;100.00;94685.16;5042512;28;20075;-80
2021/12/09 00:58:14;;;;;;;;;;;;;;;0.25;100.00;94690.91;5043161;28;20107;-80
2021/12/09 01:00:39;;;;;;;26.65;11.68;;;;;;;0.33;100.00;94686.50;5043811;28;19929;-80
2021/12/09 01:03:05;;;;;;;25.50;12.32;;;;;;;0.35;100.00;94685.28;5043064;28;20064;-80
2021/12/09 01:05:31;;;;;;;24.02;12.05;;;;;;;0.37;100.00;94687.66;5042541;28;20045;-80
2021/12/09 01:07:57;;;;;;;27.45;11.50;;;;;;;0.35;100.00;94685.28;5042418;28;20579;-80
2021/12/09 01:10:24;;;;;;;23.67;12.40;;;;;;;0.30;100.00;94698.06;5042327;28;20042;-81
2021/12/09 01:12:50;;;;;;;25.35;11.77;;;;;;;0.35;100.00;94689.66;5043397;28;20401;-81
2021/12/09 01:15:19;;;;;;;27.58;13.30;;;;;;;0.41;100.00;94683.66;5044168;28;20046;-81
2021/12/09 01:17:48;;;;;;;22.27;11.43;;;;;;;0.38;100.00;94689.25;5049038;28;20052;-81
2021/12/09 01:20:17;;;;;;;25.48;12.05;;;;;;;0.35;100.00;94689.66;5048614;28;20041;-82
2021/12/09 01:22:43;;;;;;;;;;;;;;;0.31;100.00;94691.09;5051422;28;20072;-81
2021/12/09 01:25:13;;;;;;;21.02;9.88;;;;;;;0.32;100.00;94682.31;5049966;28;19932;-82
2021/12/09 01:27:43;;;;;;;25.27;12.02;;;;;;;0.39;100.00;94690.84;5053650;28;20453;-82
2021/12/09 01:30:14;;;;;;;24.77;10.82;;;;;;;0.34;100.00;94685.50;5058179;28;20034;-80
2021/12/09 01:32:48;;;;;;;25.00;11.63;;;;;;;0.31;100.00;94675.56;5055134;28;20029;-79
2021/12/09 01:35:17;;;;;;;23.20;11.07;;;;;;;0.30;100.00;94677.38;5056067;28;20081;-79
2021/12/09 01:37:44;;;;;;;21.75;10.82;;;;;;;0.38;100.00;94687.47;5056200;28;20052;-79
2021/12/09 01:40:10;;;;;;;21.50;10.98;;;;;;;0.40;100.00;94676.91;5049819;28;20041;-78
2021/12/09 01:42:36;;;;;;;21.88;11.20;;;;;;;0.34;100.00;94672.56;5043600;28;20140;-78
2021/12/09 01:45:05;;;;;;;22.15;9.45;;;;;;;0.34;100.00;94680.34;5045142;28;20543;-79
2021/12/09 01:47:33;;;;;;;20.40;10.18;;;;;;;0.30;100.00;94690.28;5044471;28;20053;-78
2021/12/09 01:49:59;;;;;;;21.40;10.25;;;;;;;0.32;100.00;94697.84;5046350;28;20142;-80
2021/12/09 01:52:25;;;;;;;19.70;9.35;;;;;;;0.43;100.00;94700.56;5046481;28;20057;-80
2021/12/09 01:54:53;;;;;;;22.25;9.75;;;;;;;0.40;100.00;94708.72;5044063;28;20045;-79
2021/12/09 01:57:21;;;;;;;22.80;10.77;;;;;;;0.47;100.00;94725.00;5044817;28;20139;-80
2021/12/09 01:59:47;;;;;;;24.90;11.50;;;;;;;0.55;100.00;94736.91;5044003;28;20048;-78
2021/12/09 02:02:14;;;;;;;19.88;9.88;;;;;;;0.64;100.00;94740.81;5041565;28;20438;-79
2021/12/09 02:04:42;;;;;;;23.90;11.07;;;;;;;0.60;100.00;94733.69;5040395;28;20041;-78
2021/12/09 02:07:07;;;;;;;;;;;;;;;0.53;100.00;94733.72;5055254;28;20033;-77
2021/12/09 02:09:35;;;;;;;20.77;9.73;;;;;;;0.58;100.00;94739.06;5055519;28;19967;-78
2021/12/09 02:12:01;;;;;;;22.20;9.90;;;;;;;0.43;100.00;94723.03;5045806;28;20061;-79
2021/12/09 02:14:26;;;;;;;23.10;10.68;;;;;;;0.31;100.00;94704.81;5047520;28;20112;-79
2021/12/09 02:16:53;;;;;;;21.98;10.88;;;;;;;0.40;100.00;94729.44;5042781;28;20053;-79
2021/12/09 02:19:20;;;;;;;21.30;9.50;;;;;;;0.29;100.00;94726.72;5045603;28;20052;-79
2021/12/09 02:21:47;;;;;;;20.98;9.38;;;;;;;0.29;100.00;94722.34;5043090;28;20042;-79
2021/12/09 02:24:18;;;;;;;20.00;9.20;;;;;;;0.30;100.00;94710.97;5042118;28;20049;-80
2021/12/09 02:26:49;;;;;;;19.90;9.48;;;;;;;0.43;100.00;94730.78;5041262;28;20037;-79
2021/12/09 02:29:16;;;;;;;21.10;9.73;;;;;;;0.48;100.00;94738.72;5045120;28;20152;-83
2021/12/09 02:31:43;;;;;;;23.83;11.13;;;;;;;0.37;100.00;94716.09;5045125;28;20068;-82
2021/12/09 02:34:10;;;;;;;21.95;9.93;;;;;;;0.35;100.00;94718.91;5053064;28;20049;-81
2021/12/09 02:36:39;;;;;;;23.15;9.75;;;;;;;0.50;100.00;94744.50;5061706;28;20041;-79
2021/12/09 02:39:08;;;;;;;20.08;9.00;;;;;;;0.44;100.00;94742.75;5072766;28;20041;-80
2021/12/09 02:41:38;;;;;;;21.20;10.20;;;;;;;0.55;100.00;94730.94;5066379;28;20037;-79
2021/12/09 02:44:06;;;;;;;21.02;9.25;;;;;;;0.49;100.00;94728.19;5066247;28;20041;-79
2021/12/09 02:46:37;;;;;;;21.52;10.52;;;;;;;0.46;100.00;94733.75;5064659;28;20040;-78
2021/12/09 02:49:04;;;;;;;22.70;9.88;;;;;;;0.52;100.00;94726.97;5069828;28;20041;-77
2021/12/09 02:51:29;;;;;;;20.55;10.00;;;;;;;0.50;100.00;94709.06;5064403;28;20098;-77
2021/12/09 02:53:55;;;;;;;19.60;8.45;;;;;;;0.55;100.00;94721.38;5060375;28;20037;-78
2021/12/09 02:56:24;;;;;;;22.90;9.35;;;;;;;0.65;100.00;94719.13;5060118;28;20108;-78
2021/12/09 02:58:50;;;;;;;19.63;8.13;;;;;;;0.54;100.00;94722.38;5060134;28;20045;-78
2021/12/09 03:01:19;;;;;;;17.20;7.65;;;;;;;0.53;100.00;94723.38;5060249;28;20062;-77
2021/12/09 03:03:51;;;;;;;18.80;8.52;;;;;;;0.58;100.00;94715.78;5060399;28;20051;-77
2021/12/09 03:06:18;;;;;;;20.15;8.23;;;;;;;0.65;100.00;94726.09;5060939;28;20083;-76
2021/12/09 03:08:47;;;;;;;20.83;8.90;;;;;;;0.83;100.00;94725.34;5056571;28;20136;-78
2021/12/09 03:11:14;;;;;;;;;;;;;;;0.55;100.00;94716.19;5062141;28;20033;-77
2021/12/09 03:13:42;;;;;;;;;;;;;;;0.66;100.00;94720.69;5061874;28;19921;-78
2021/12/09 03:16:08;;;;;;;19.60;7.97;;;;;;;0.84;100.00;94729.53;5059427;28;19943;-78
2021/12/09 03:18:41;;;;;;;19.90;8.48;;;;;;;0.66;100.00;94730.25;5061676;28;20040;-77
2021/12/09 03:21:13;;;;;;;22.05;10.25;;;;;;;0.48;100.00;94730.97;5060784;28;20037;-78
2021/12/09 03:23:41;;;;;;;19.30;8.80;;;;;;;0.46;100.00;94740.72;5059985;28;20033;-78
2021/12/09 03:26:07;;;;;;;20.55;9.20;;;;;;;0.47;100.00;94734.56;5058901;28;20534;-78
2021/12/09 03:28:33;;;;;;;23.05;10.25;;;;;;;0.45;100.00;94729.59;5060939;28;20049;-80
2021/12/09 03:31:02;;;;;;;20.00;9.73;;;;;;;0.60;100.00;94737.06;5060022;28;20040;-79
2021/12/09 03:33:28;;;;;;;22.23;9.15;;;;;;;0.48;100.00;94741.31;5059846;28;20037;-79
2021/12/09 03:35:57;;;;;;;21.48;9.95;;;;;;;0.55;100.00;94749.06;5048495;28;20123;-79
2021/12/09 03:38:23;;;;;;;20.75;9.13;;;;;;;0.62;100.00;94747.19;5040734;28;20119;-79
2021/12/09 03:40:48;;;;;;;20.88;9.48;;;;;;;0.58;100.00;94741.63;5039736;28;20054;-79
2021/12/09 03:43:14;;;;;;;21.17;9.65;;;;;;;0.63;100.00;94744.41;5039120;28;20091;-79
2021/12/09 03:45:39;;;;;;;19.30;8.77;;;;;;;0.61;100.00;94748.22;5039622;28;20037;-80
2021/12/09 03:48:06;;;;;;;18.60;8.55;;;;;;;0.45;100.00;94752.88;5047779;28;20029;-77
2021/12/09 03:50:32;;;;;;;25.77;9.38;;;;;;;0.50;100.00;94770.38;5055062;28;20041;-81
2021/12/09 03:52:58;;;;;;;20.48;8.80;;;;;;;0.48;100.00;94772.34;5043177;28;20045;-78
2021/12/09 03:55:26;;;;;;;22.50;8.85;;;;;;;0.60;100.00;94768.13;5038663;28;20052;-78
2021/12/09 03:57:52;;;;;;;17.90;7.72;;;;;;;0.57;100.00;94765.94;5042235;28;20404;-79
2021/12/09 04:00:20;;;;;;;18.55;7.72;;;;;;;0.62;100.00;94767.91;5041693;28;20119;-79
2021/12/09 04:02:45;;;;;;;17.52;7.90;;;;;;;0.57;100.00;94759.97;5046341;28;20049;-80
2021/12/09 04:05:12;;;;;;;20.50;8.63;;;;;;;0.54;100.00;94763.78;5039249;28;20037;-80
2021/12/09 04:07:38;;;;;;;18.50;8.25;;;;;;;0.47;100.00;94742.31;5043572;28;20101;-79
2021/12/09 04:10:06;;;;;;;19.58;8.23;;;;;;;0.40;100.00;94770.81;5040365;28;20125;-82
2021/12/09 04:12:34;;;;;;;17.75;7.43;;;;;;;0.45;100.00;94775.38;5039982;28;20394;-80
2021/12/09 04:15:00;;;;;;;;;;;;;;;0.37;100.00;94784.16;5041481;28;20112;-80
2021/12/09 04:17:25;;;;;;;17.02;6.68;;;;;;;0.40;100.00;94781.16;5039593;28;19917;-78
2021/12/09 04:19:51;;;;;;;17.58;7.65;;;;;;;0.45;100.00;94783.13;5037374;28;20493;-77
2021/12/09 04:22:22;;;;;;;16.35;7.10;;;;;;;0.47;100.00;94791.47;5034660;28;20041;-77
2021/12/09 04:24:49;;;;;;;15.95;7.03;;;;;;;0.48;100.00;94798.22;5038574;28;20037;-77
2021/12/09 04:27:14;;;;;;;17.48;7.85;;;;;;;0.57;100.00;94802.16;5037757;28;20038;-79
2021/12/09 04:29:40;;;;;;;18.58;7.60;;;;;;;0.50;100.00;94806.59;5038009;28;20128;-80
2021/12/09 04:32:07;;;;;;;17.35;7.32;;;;;;;0.55;100.00;94808.56;5038253;28;20036;-80
2021/12/09 04:34:32;;;;;;;17.48;7.45;;;;;;;0.55;100.00;94805.97;5039473;28;20076;-78
2021/12/09 04:37:01;;;;;;;19.45;7.47;;;;;;;0.59;100.00;94801.94;5043682;28;20053;-78
2021/12/09 04:39:28;;;;;;;16.58;6.53;;;;;;;0.58;100.00;94808.91;5041876;28;20045;-77
2021/12/09 04:41:54;;;;;;;16.50;6.82;;;;;;;0.60;100.00;94811.31;5041788;28;20043;-77
2021/12/09 04:44:20;;;;;;;16.17;6.63;;;;;;;0.70;100.00;94811.63;5036784;28;20121;-77
2021/12/09 04:46:45;;;;;;;18.35;7.03;;;;;;;0.72;100.00;94820.78;5039997;28;20073;-78
2021/12/09 04:49:11;;;;;;;15.75;6.60;;;;;;;0.64;100.00;94815.84;5056774;23;20071;-77
2021/12/09 04:51:37;;;;;;;14.20;6.07;;;;;;;0.57;100.00;94817.69;5055720;28;20056;-78
2021/12/09 04:54:03;;;;;;;19.08;6.68;;;;;;;0.63;100.00;94834.97;5061717;28;20405;-79
2021/12/09 04:56:34;;;;;;;16.10;6.35;;;;;;;0.60;100.00;94840.56;5071036;28;20040;-80
2021/12/09 04:59:02;;;;;;;13.88;5.90;;;;;;;0.56;100.00;94839.38;5063944;28;20041;-81
2021/12/09 05:01:27;;;;;;;;;;;;;;;0.66;100.00;94839.75;5063366;28;20045;-81
2021/12/09 05:03:53;;;;;;;16.52;6.25;;;;;;;0.67;100.00;94849.09;5072009;28;19988;-80
2021/12/09 05:06:20;;;;;;;17.42;6.75;;;;;;;0.69;100.00;94841.09;5041293;28;20047;-80
2021/12/09 05:08:49;;;;;;;18.95;7.78;;;;;;;0.49;100.00;94834.25;5065469;28;20045;-80
2021/12/09 05:11:47;;;;;;;20.30;7.68;;;;;;;0.59;100.00;94825.22;5063554;28;20045;-81
2021/12/09 05:14:18;;;;;;;18.85;7.97;;;;;;;0.56;100.00;94831.63;5062898;28;20113;-80
2021/12/09 05:16:45;;;;;;;15.80;7.38;;;;;;;0.50;100.00;94833.25;5060249;28;20045;-79
2021/12/09 05:19:13;;;;;;;17.92;7.78;;;;;;;0.55;100.00;94837.81;5060336;28;20041;-80
2021/12/09 05:21:39;;;;;;;;;;;;;;;0.60;100.00;94826.84;5066222;28;20177;-80
2021/12/09 05:24:05;;;;;;;15.75;6.70;;;;;;;0.57;100.00;94835.78;5043179;28;20380;-80
2021/12/09 05:26:40;;;;;;;16.33;6.70;;;;;;;0.52;100.00;94838.22;5063024;28;20068;-78
2021/12/09 05:29:06;;;;;;;14.95;6.93;;;;;;;0.50;100.00;94842.81;5066283;28;20123;-79
2021/12/09 05:34:17;;;;;;;16.30;6.93;;;;;;;0.63;100.00;94855.66;5068967;28;20056;-79
2021/12/09 05:36:45;;;;;;;18.20;7.47;;;;;;;0.63;100.00;94862.63;5073590;28;20048;-78
2021/12/09 05:39:11;;;;;;;;;;;;;;;0.58;100.00;94862.47;5059310;28;20056;-79
2021/12/09 05:41:37;;;;;;;14.88;6.68;;;;;;;0.65;100.00;94876.97;5045385;28;19970;-78
2021/12/09 05:44:07;;;;;;;19.75;7.05;;;;;;;0.64;100.00;94877.94;5057684;28;20313;-78
2021/12/09 05:46:38;;;;;;;15.68;7.28;;;;;;;0.76;100.00;94876.31;5026761;28;20073;-77
2021/12/09 05:49:04;;;;;;;16.27;6.80;;;;;;;0.82;100.00;94863.56;5041668;28;20041;-80
2021/12/09 05:51:30;;;;;;;14.77;6.47;;;;;;;0.88;100.00;94871.28;5053396;28;20057;-81
2021/12/09 05:53:56;;;;;;;15.30;6.35;;;;;;;0.80;100.00;94868.91;5051955;28;20043;-81
2021/12/09 05:56:22;;;;;;;14.48;5.72;;;;;;;0.70;100.00;94861.63;5050121;28;20101;-82
2021/12/09 05:58:48;;;;;;;15.52;6.38;;;;;;;0.66;100.00;94864.81;5048415;28;20128;-82
2021/12/09 06:01:14;;;;;;;14.27;6.40;;;;;;;0.70;100.00;94863.38;5046466;28;20088;-82
2021/12/09 06:03:43;;;;;;;18.58;6.75;;;;;;;0.70;100.00;94861.63;5045803;28;20042;-81
2021/12/09 06:06:10;;;;;;;14.73;6.50;;;;;;;0.73;100.00;94874.13;5033291;28;20045;-80
2021/12/09 06:08:38;;;;;;;15.27;6.15;;;;;;;0.73;100.00;94868.94;5045282;28;20076;-80
2021/12/09 06:11:05;;;;;;;17.73;7.20;;;;;;;0.70;100.00;94868.56;5022001;28;20103;-80
2021/12/09 06:13:32;;;;;;;18.38;6.80;;;;;;;0.78;100.00;94886.47;5041296;28;20046;-82
2021/12/09 06:15:58;;;;;;;16.67;6.60;;;;;;;0.81;100.00;94885.22;5040539;28;20037;-82
2021/12/09 06:18:24;;;;;;;14.27;5.93;;;;;;;0.81;100.00;94890.41;5021636;28;20041;-79
2021/12/09 06:20:51;;;;;;;16.60;7.15;;;;;;;0.74;100.00;94890.44;5032305;28;20364;-81
2021/12/09 06:23:17;;;;;;;17.33;7.43;;;;;;;0.76;100.00;94889.25;5061822;28;20056;-80
2021/12/09 06:25:46;;;;;;;16.25;6.88;;;;;;;0.77;100.00;94888.25;5065771;28;20044;-81
2021/12/09 06:28:12;;;;;;;22.58;7.72;;;;;;;0.85;100.00;94901.94;5069341;28;20092;-80
2021/12/09 06:30:37;;;;;;;19.55;7.25;;;;;;;0.92;100.00;94895.75;5065479;28;20492;-80
2021/12/09 06:33:05;;;;;;;17.52;6.85;;;;;;;0.88;100.00;94899.75;5065384;28;20045;-82
2021/12/09 06:35:31;;;;;;;15.73;6.88;;;;;;;0.92;100.00;94907.91;5057863;28;20104;-82
2021/12/09 06:38:00;;;;;;;18.23;6.85;;;;;;;0.87;100.00;94907.72;5046513;28;20057;-83
2021/12/09 06:40:25;;;;;;;17.30;7.20;;;;;;;0.93;100.00;94904.31;5050061;28;20037;-81
2021/12/09 06:42:52;;;;;;;20.10;7.35;;;;;;;0.84;100.00;94905.53;5034498;28;20037;-82
2021/12/09 06:45:20;;;;;;;17.30;7.25;;;;;;;0.86;100.00;94904.34;5049265;28;20069;-82
2021/12/09 06:47:47;;;;;;;18.58;6.88;;;;;;;0.87;100.00;94900.75;5048641;28;20061;-83
2021/12/09 06:50:16;;;;;;;17.90;6.90;;;;;;;0.95;100.00;94899.72;5048869;28;20068;-82
2021/12/09 06:52:42;;;;;;;16.70;6.80;;;;;;;0.80;100.00;94902.56;5048498;28;20062;-81
2021/12/09 06:55:12;;;;;;;17.52;7.45;;;;;;;0.82;100.00;94897.19;5053398;28;20102;-81
2021/12/09 06:57:38;;;;;;;18.90;7.15;;;;;;;0.88;100.00;94901.53;5030768;28;20068;-82
2021/12/09 07:00:06;;;;;;;16.15;6.55;;;;;;;0.82;100.00;94910.13;5047823;28;20060;-83
2021/12/09 07:02:32;;;;;;;16.73;6.13;;;;;;;0.79;100.00;94906.94;5027855;28;20038;-87
2021/12/09 07:04:57;;;;;;;19.75;7.03;;;;;;;0.75;100.00;94929.09;5041011;28;20075;-85
2021/12/09 07:07:23;;;;;;;16.52;6.68;;;;;;;0.79;100.00;94932.03;5039487;28;20041;-85
2021/12/09 07:09:50;;;;;;;17.23;6.85;;;;;;;0.79;100.00;94930.25;5021463;28;20046;-86
2021/12/09 07:12:17;;;;;;;17.07;7.13;;;;;;;0.87;100.00;94928.44;5044766;28;20048;-86
2021/12/09 07:14:43;;;;;;;15.13;6.30;;;;;;;0.87;100.00;94928.44;5057084;28;20021;-86
2021/12/09 07:17:09;;;;;;;17.88;7.10;;;;;;;0.79;100.00;94929.44;5050145;28;20057;-87
2021/12/09 07:19:35;;;;;;;17.95;6.78;;;;;;;0.87;100.00;94941.38;5039590;28;20049;-85
2021/12/09 07:22:01;;;;;;;15.38;6.90;;;;;;;0.93;100.00;94935.38;5021731;28;20519;-85
2021/12/09 07:24:27;;;;;;;17.73;6.15;;;;;;;0.90;100.00;94938.38;5046706;28;20057;-85
2021/12/09 07:26:53;;;;;;;19.02;6.05;;;;;;;0.89;100.00;94932.41;5035907;28;20081;-82
2021/12/09 07:29:20;;;;;;;15.20;6.68;;;;;;;0.85;100.00;94923.44;5038256;28;20060;-86
2021/12/09 07:31:46;;;;;;;15.93;6.75;;;;;;;0.83;100.00;94938.41;5051956;28;20046;-86
2021/12/09 07:34:11;;;;;;;15.55;7.20;;;;;;;0.82;100.00;94943.78;5050829;28;20048;-82
2021/12/09 07:36:37;;;;;;;19.30;7.40;;;;;;;0.76;100.00;94941.03;5051143;28;20053;-83
2021/12/09 07:39:03;;;;;;;15.52;6.63;;;;;;;0.79;100.00;94945.78;5022544;28;20064;-83
2021/12/09 07:41:31;;;;;;;16.80;6.55;;;;;;;0.87;100.00;94955.13;5040937;28;20041;-83
2021/12/09 07:43:57;;;;;;;14.45;6.30;;;;;;;0.84;100.00;94952.13;5042101;28;20224;-83
2021/12/09 07:46:24;;;;;;;17.60;6.82;;;;;;;0.84;100.00;94958.09;5048828;28;20037;-84
2021/12/09 07:48:50;;;;;;;17.90;6.85;;;;;;;0.91;100.00;94958.06;5057525;28;20051;-81
2021/12/09 07:51:15;;;;;;;17.25;6.68;;;;;;;0.90;100.00;94957.28;5048057;28;20060;-84
2021/12/09 07:53:41;;;;;;;14.80;6.43;;;;;;;0.93;100.00;94966.44;5038148;28;20044;-85
2021/12/09 07:56:09;;;;;;;17.23;6.10;;;;;;;1.02;100.00;94970.38;5050355;28;20052;-85
2021/12/09 07:58:37;;;;;;;18.65;6.63;;;;;;;0.99;100.00;94978.56;5059149;28;20094;-87
2021/12/09 08:01:06;;;;;;;16.13;6.32;;;;;;;0.97;100.00;94973.59;5040737;28;20040;-79
2021/12/09 08:03:33;;;;;;;19.67;6.90;;;;;;;0.97;100.00;94972.78;5058595;28;20045;-79
2021/12/09 08:05:59;;;;;;;17.73;6.57;;;;;;;1.13;100.00;94974.09;5060370;28;20497;-80
2021/12/09 08:08:25;;;;;;;17.15;6.43;;;;;;;1.09;100.00;94978.91;5068900;28;20285;-79
2021/12/09 08:10:50;;;;;;;18.20;6.47;;;;;;;1.06;100.00;94979.31;5061727;28;20053;-80
2021/12/09 08:13:16;;;;;;;15.93;6.00;;;;;;;1.07;100.00;94986.09;5039410;28;20067;-81
2021/12/09 08:15:49;;;;;;;16.83;6.35;;;;;;;0.95;100.00;94985.16;5049389;28;20042;-82
2021/12/09 08:20:48;;;;;;;18.80;8.18;;;;;;;1.01;100.00;94992.09;5051384;28;20072;-83
2021/12/09 08:23:14;;;;;;;16.67;6.55;;;;;;;1.03;100.00;94992.69;5039402;28;20055;-83
2021/12/09 08:25:41;;;;;;;17.98;6.72;;;;;;;1.02;100.00;94997.09;5066021;28;20044;-83
2021/12/09 08:28:07;;;;;;;18.60;6.80;;;;;;;1.01;100.00;94995.47;5078619;28;20036;-82
2021/12/09 08:30:34;;;;;;;18.30;6.97;;;;;;;1.06;100.00;95007.81;5074347;28;20018;-84
2021/12/09 08:33:00;;;;;;;20.77;6.45;;;;;;;1.10;100.00;95003.81;5043090;28;20041;-78
2021/12/09 08:35:26;;;;;;;18.67;6.57;;;;;;;1.08;100.00;95005.81;5046098;28;20122;-77
2021/12/09 08:37:58;;;;;;;14.95;6.05;;;;;;;1.11;100.00;95013.16;5038440;28;20076;-78
2021/12/09 08:40:27;;;;;;;16.42;5.93;;;;;;;1.20;100.00;95013.72;5040046;28;20037;-78
2021/12/09 08:42:56;;;;;;;12.00;4.55;;;;;;;1.25;100.00;95016.50;5039374;28;20041;-78
2021/12/09 08:45:24;;;;;;;13.70;5.15;;;;;;;1.27;100.00;95015.28;5039939;28;20034;-79
2021/12/09 08:47:52;;;;;;;11.32;4.32;;;;;;;1.27;100.00;95011.91;5040444;28;20049;-79
2021/12/09 08:50:23;;;;;;;18.15;5.63;;;;;;;1.27;100.00;95025.63;5044180;28;20045;-84
2021/12/09 08:52:52;;;;;;;15.13;5.00;;;;;;;1.42;100.00;95022.00;5043594;28;20041;-84
2021/12/09 08:55:19;;;;;;;13.63;5.60;;;;;;;1.34;100.00;95024.81;5049679;28;20057;-84
2021/12/09 08:57:46;;;;;;;12.50;4.63;;;;;;;1.29;100.00;95018.47;5055970;28;20041;-85
2021/12/09 09:00:16;;;;;;;15.93;4.75;;;;;;;1.47;100.00;95011.81;5052118;28;20049;-85
2021/12/09 09:02:46;;;;;;;14.27;5.78;;;;;;;1.34;100.00;95024.81;5030862;28;20042;-84
2021/12/09 09:05:15;;;;;;;10.80;4.55;;;;;;;1.42;100.00;95037.53;5030945;28;20057;-84
2021/12/09 09:07:41;;;;;;;14.90;5.10;;;;;;;1.41;100.00;95041.13;5050400;28;20088;-85
2021/12/09 09:10:09;;;;;;;15.00;4.55;;;;;;;1.44;100.00;95040.72;5048538;28;20073;-84
2021/12/09 09:12:37;;;;;;;11.60;4.30;;;;;;;1.39;100.00;95043.13;5047197;28;20041;-83
2021/12/09 09:15:04;;;;;;;11.95;4.78;;;;;;;1.55;100.00;95053.00;5031964;28;20049;-83
2021/12/09 09:17:30;;;;;;;13.20;4.75;;;;;;;1.46;100.00;95054.28;5054388;28;20051;-82
2021/12/09 09:19:55;;;;;;;11.95;4.40;;;;;;;1.39;100.00;95043.91;5047312;28;20129;-84
2021/12/09 09:22:21;;;;;;;12.60;4.50;;;;;;;1.60;100.00;95055.78;5044961;28;20045;-83
2021/12/09 09:24:47;;;;;;;15.57;4.57;;;;;;;1.65;100.00;95050.75;5049651;28;20030;-83
2021/12/09 09:27:15;;;;;;;14.93;5.18;;;;;;;1.74;100.00;95059.88;5054815;28;20083;-84
2021/12/09 09:29:43;;;;;;;12.25;4.65;;;;;;;1.61;100.00;95059.94;5054838;28;20064;-84
2021/12/09 09:32:11;;;;;;;13.63;4.47;;;;;;;1.63;100.00;95065.75;5047327;28;20133;-84
2021/12/09 09:34:37;;;;;;;10.15;4.57;;;;;;;1.71;100.00;95057.69;5044487;28;20037;-83
2021/12/09 09:37:04;;;;;;;14.80;5.38;;;;;;;1.74;99.99;95052.13;5044358;28;20049;-81
2021/12/09 09:39:31;;;;;;;15.50;4.90;;;;;;;1.87;99.72;95058.22;5043347;28;20045;-79
2021/12/09 09:42:19;;;;;;;13.50;4.78;;;;;;;1.76;99.91;95055.28;5040024;28;20039;-83
2021/12/09 09:44:57;;;;;;;10.90;3.88;;;;;;;1.80;99.42;95061.66;5048602;28;20033;-82
2021/12/09 09:47:24;;;;;;;13.23;4.68;;;;;;;1.82;99.30;95064.81;5039948;28;20061;-79
2021/12/09 09:49:52;;;;;;;14.02;4.95;;;;;;;1.70;100.00;95074.25;5061092;28;20045;-82
2021/12/09 09:52:18;;;;;;;11.93;4.93;;;;;;;1.60;100.00;95076.50;5070009;28;20041;-81
2021/12/09 09:54:44;;;;;;;14.30;4.93;;;;;;;1.57;100.00;95072.53;5066230;28;20133;-82
2021/12/09 09:57:11;;;;;;;13.27;5.40;;;;;;;1.60;100.00;95073.13;5066819;28;20049;-83
2021/12/09 09:59:40;;;;;;;12.60;5.07;;;;;;;1.61;100.00;95067.72;5068357;28;20033;-83
2021/12/09 10:02:14;;;;;;;13.48;4.60;;;;;;;1.55;100.00;95068.56;5068470;28;20041;-81
2021/12/09 10:05:00;;;;;;;12.35;5.57;;;;;;;1.64;100.00;95072.50;5067232;28;20049;-82
2021/12/09 10:07:26;;;;;;;14.63;5.68;;;;;;;1.85;100.00;95068.81;5047727;28;20112;-82
2021/12/09 10:09:56;;;;;;;15.15;5.88;;;;;;;1.75;100.00;95064.06;5064600;28;20277;-83
2021/12/09 10:12:29;;;;;;;15.65;5.40;;;;;;;1.73;99.82;95070.47;5065643;28;20075;-82
2021/12/09 10:14:56;;;;;;;13.50;5.25;;;;;;;1.84;99.23;95059.44;5049102;28;20033;-83
2021/12/09 10:17:28;;;;;;;14.27;5.10;;;;;;;1.86;99.50;95054.03;5048389;28;20044;-82
2021/12/09 10:19:57;;;;;;;15.15;5.10;;;;;;;1.80;99.15;95056.47;5046418;28;20128;-83
2021/12/09 10:22:24;;;;;;;14.57;4.95;;;;;;;1.61;99.66;95062.53;5055587;28;20124;-82
2021/12/09 10:24:55;;;;;;;11.63;4.75;;;;;;;1.65;100.00;95061.13;5049839;28;20041;-83
2021/12/09 10:27:28;;;;;;;12.77;4.88;;;;;;;1.62;100.00;95064.16;5066449;28;20060;-81
2021/12/09 10:29:58;;;;;;;13.45;4.93;;;;;;;1.61;100.00;95064.34;5047309;28;20052;-83
2021/12/09 10:32:32;;;;;;;12.80;5.57;;;;;;;1.68;100.00;95068.50;5046245;28;20063;-83
2021/12/09 10:35:07;;;;;;;13.90;6.10;;;;;;;1.70;100.00;95055.31;5063510;28;20509;-80
2021/12/09 10:37:34;;;;;;;15.10;5.53;;;;;;;1.58;100.00;95061.16;5064088;28;20101;-83
2021/12/09 10:40:08;;;;;;;14.32;5.55;;;;;;;1.68;100.00;95060.72;5044987;28;20168;-82
2021/12/09 10:42:37;;;;;;;11.95;5.28;;;;;;;1.66;100.00;95060.13;5063650;28;20049;-83
2021/12/09 10:45:08;;;;;;;12.90;5.43;;;;;;;1.75;100.00;95061.47;5062755;28;20041;-84
2021/12/09 10:52:43;;;;;;;10.43;4.35;;;;;;;1.90;99.37;95060.41;5044735;28;20033;-79
2021/12/09 10:55:21;;;;;;;11.23;5.13;;;;;;;1.66;100.00;95049.75;5045004;28;20064;-80
2021/12/09 10:57:57;;;;;;;14.18;5.13;;;;;;;1.73;100.00;95047.94;5052749;28;20044;-80
2021/12/09 11:00:31;;;;;;;12.90;4.78;;;;;;;1.83;99.24;95037.13;5051004;28;20041;-79
2021/12/09 11:03:15;;;;;;;12.27;4.97;;;;;;;1.81;99.13;95032.13;5046208;28;20049;-78
2021/12/09 11:05:44;;;;;;;13.95;4.63;;;;;;;1.78;99.51;95032.56;5043319;28;20109;-79
2021/12/09 11:08:33;;;;;;;12.20;5.25;;;;;;;1.63;99.48;95033.84;5043651;28;20064;-78
2021/12/09 11:11:06;;;;;;;12.82;5.28;;;;;;;1.87;100.00;95034.88;5045181;28;20060;-80
2021/12/09 11:13:39;;;;;;;13.50;5.07;;;;;;;1.98;99.52;95034.19;5044177;28;20046;-81
2021/12/09 11:16:07;;;;;;;13.43;5.30;;;;;;;2.14;98.80;95040.66;5046030;28;20065;-79
2021/12/09 11:18:40;;;;;;;13.82;4.78;;;;;;;2.12;98.47;95035.69;5047276;28;20049;-78
2021/12/09 11:21:11;;;;;;;11.95;5.25;;;;;;;2.20;98.43;95045.78;5043708;28;20041;-81
2021/12/09 11:23:44;;;;;;;14.73;5.28;;;;;;;2.09;98.38;95046.47;5044322;28;20034;-81
2021/12/09 11:26:35;;;;;;;11.38;5.15;;;;;;;2.28;98.08;95029.19;5044778;28;20049;-80
2021/12/09 11:29:07;;;;;;;13.02;5.00;;;;;;;2.07;97.97;95032.94;5045647;28;20064;-77
2021/12/09 11:31:41;;;;;;;16.88;5.05;;;;;;;2.05;97.91;95034.97;5052430;28;20096;-78
2021/12/09 11:34:14;;;;;;;14.55;5.53;;;;;;;2.01;98.63;95038.97;5051156;28;20056;-80
2021/12/09 11:36:46;;;;;;;11.90;5.38;;;;;;;2.05;98.55;95037.56;5045075;28;20104;-79
2021/12/09 11:39:19;;;;;;;12.98;4.78;;;;;;;2.10;98.93;95040.31;5043039;28;20045;-80
2021/12/09 11:41:45;;;;;;;12.32;4.88;;;;;;;2.38;98.25;95039.88;5041376;28;20068;-80